Hubbard, OR

7:11 PM PDT on March 27, 2017 (GMT -0700)
Mineral Springs View | | Change Station

Elev 177 ft 45.19 °N, 122.81 °W | Updated 26 seconds ago

Overcast
Overcast
48.9 °F
Feels Like 49 °F
N
2.0
Wind Variable Wind from WSW

Today
High -- | Low -- °F
--% Chance of Precip.
Yesterday
High -- | Low -- °F
Precip. -- in
Pressure 30.30 in
Visibility 10.0 miles
Clouds Scattered Clouds 3000 ft
Mostly Cloudy 9000 ft
Mostly Cloudy 10000 ft
Windchill 49 °F
Dew Point 47 °F
Humidity 93%
Rainfall 0.16 in
Snow Depth Not available.
7:00 AM 7:33 PM
Waning Crescent, 0% visible
METAR KUAO 280153Z 23005KT 10SM SCT030 BKN090 BKN100 10/04 A3030 RMK AO2 SLP261 T01000044
Pressure 30.30 in
Visibility 10.0 miles
Clouds Scattered Clouds 3000 ft
Mostly Cloudy 9000 ft
Mostly Cloudy 10000 ft
Windchill 49 °F
Dew Point 47 °F
Humidity 93%
Rainfall 0.16 in
Snow Depth Not available.
7:00 AM 7:33 PM
Waning Crescent, 0% visible
METAR KUAO 280153Z 23005KT 10SM SCT030 BKN090 BKN100 10/04 A3030 RMK AO2 SLP261 T01000044

Get Severe Weather Alerts

Thanks for signing up!

Be on the lookout for a verification email in your inbox.

You'll start receiving the daily forecast at 8 AM.

×

10-Day Weather Forecast

Almanac

Astronomy

Mar. 27, 2017 Rise Set
Actual Time
Civil Twilight
Nautical Twilight
Astronomical Twilight
Moon
Length of Visible Light
Length of Day
Tomorrow will be .
, % of the Moon is Illuminated

Today's Extremes

State Highs State Lows

Community

WunderPhotos

Upload Photos

1,962,540 photos uploaded!

WunderBlog® & News

Nearby

Air Quality

  Air Quality AQ Index Pollutant
Not available.

Snow Depth

Station Depth Elevation

Earthquake Activity

City Distance Mag. Time & Date
Minimum magnitude displayed is 2.5.

Earthquake Activity

City Distance Mag. Time & Date
Minimum magnitude displayed is 2.5.

Coastal Water Temperatures

Place Temperature

Stations

Nearby Weather Stations

Station Location Temp. Windchill Dew Point Humidity Wind Precip. Elev Updated Type
                   

Watches & Warnings

There are currently no watches in effect.